Oak Grove, Arkansas
Current Conditions -  °F | °C
As of 9:45 AM on Saturday 22 Nov 2014 (Local Time) from KBBG Reporting Station
Light Rain Light Rain  
Wind Chill: 54°   Ceiling: 3500
Heat Index: 54°   Visibility: 7mi
Dew Point: 50°   Wind: 9mph
Humidity: 88%   Direction: 160°SSE
Pressure: 30.1"   Gusts: NA
Location:  36.46°N, 93.44°W
Report Text: KBBG 221545Z 16008KT 7SM -RA SCT017 OVC035 12/10 A3010
Loading
Personal Weather Stations






























Interactive Weather Map New forecast layout! Learn more

10-Day Weather Forecast

Advertisements
Track Severe Weather on mobile